sensor_id;sensor_type;location;lat;lon;timestamp;temperature;humidity
11426;DHT22;5769;47.998;7.788;2022-09-09T00:01:49;21.10;66.30
11426;DHT22;5769;47.998;7.788;2022-09-09T00:04:25;21.10;66.50
11426;DHT22;5769;47.998;7.788;2022-09-09T00:07:03;21.10;66.40
11426;DHT22;5769;47.998;7.788;2022-09-09T00:09:36;21.10;66.50
11426;DHT22;5769;47.998;7.788;2022-09-09T00:12:11;21.10;66.70
11426;DHT22;5769;47.998;7.788;2022-09-09T00:14:47;21.10;66.80
11426;DHT22;5769;47.998;7.788;2022-09-09T00:17:26;21.10;67.10
11426;DHT22;5769;47.998;7.788;2022-09-09T00:20:03;21.10;67.30
11426;DHT22;5769;47.998;7.788;2022-09-09T00:22:32;21.10;67.30
11426;DHT22;5769;47.998;7.788;2022-09-09T00:25:08;21.00;67.30
11426;DHT22;5769;47.998;7.788;2022-09-09T00:27:41;21.00;67.40
11426;DHT22;5769;47.998;7.788;2022-09-09T00:30:16;21.00;67.40
11426;DHT22;5769;47.998;7.788;2022-09-09T00:32:46;21.00;67.50
11426;DHT22;5769;47.998;7.788;2022-09-09T00:35:22;21.10;67.80
11426;DHT22;5769;47.998;7.788;2022-09-09T00:37:54;21.00;67.60
11426;DHT22;5769;47.998;7.788;2022-09-09T00:40:29;21.10;67.70
11426;DHT22;5769;47.998;7.788;2022-09-09T00:43:10;21.10;67.40
11426;DHT22;5769;47.998;7.788;2022-09-09T00:46:14;21.10;67.50
11426;DHT22;5769;47.998;7.788;2022-09-09T00:48:52;21.00;67.50
11426;DHT22;5769;47.998;7.788;2022-09-09T00:51:36;21.00;67.70
11426;DHT22;5769;47.998;7.788;2022-09-09T00:54:28;21.00;67.70
11426;DHT22;5769;47.998;7.788;2022-09-09T00:57:10;21.00;67.90
11426;DHT22;5769;47.998;7.788;2022-09-09T00:59:46;21.00;67.90
11426;DHT22;5769;47.998;7.788;2022-09-09T01:02:27;21.00;68.10
11426;DHT22;5769;47.998;7.788;2022-09-09T01:05:02;21.00;67.90
11426;DHT22;5769;47.998;7.788;2022-09-09T01:07:32;21.00;67.60
11426;DHT22;5769;47.998;7.788;2022-09-09T01:10:01;21.00;67.60
11426;DHT22;5769;47.998;7.788;2022-09-09T01:12:38;21.00;68.40
11426;DHT22;5769;47.998;7.788;2022-09-09T01:15:11;21.00;67.70
11426;DHT22;5769;47.998;7.788;2022-09-09T01:17:49;21.00;67.80
11426;DHT22;5769;47.998;7.788;2022-09-09T01:20:23;20.90;67.70
11426;DHT22;5769;47.998;7.788;2022-09-09T01:23:07;20.90;67.80
11426;DHT22;5769;47.998;7.788;2022-09-09T01:28:46;21.00;68.10
11426;DHT22;5769;47.998;7.788;2022-09-09T01:31:18;21.00;68.30
11426;DHT22;5769;47.998;7.788;2022-09-09T01:33:46;21.00;68.10
11426;DHT22;5769;47.998;7.788;2022-09-09T01:36:23;20.90;68.20
11426;DHT22;5769;47.998;7.788;2022-09-09T01:38:51;20.90;68.90
11426;DHT22;5769;47.998;7.788;2022-09-09T01:41:19;20.90;68.40
11426;DHT22;5769;47.998;7.788;2022-09-09T01:43:48;20.90;68.40
11426;DHT22;5769;47.998;7.788;2022-09-09T01:46:20;20.90;68.30
11426;DHT22;5769;47.998;7.788;2022-09-09T01:48:49;20.90;68.40
11426;DHT22;5769;47.998;7.788;2022-09-09T01:51:16;20.90;68.60
11426;DHT22;5769;47.998;7.788;2022-09-09T01:53:43;20.90;68.70
11426;DHT22;5769;47.998;7.788;2022-09-09T01:56:22;20.90;68.70
11426;DHT22;5769;47.998;7.788;2022-09-09T01:59:05;20.90;68.90
11426;DHT22;5769;47.998;7.788;2022-09-09T02:01:38;20.90;69.20
11426;DHT22;5769;47.998;7.788;2022-09-09T02:04:15;20.90;69.50
11426;DHT22;5769;47.998;7.788;2022-09-09T02:06:46;20.90;69.80
11426;DHT22;5769;47.998;7.788;2022-09-09T02:09:15;20.90;69.90
11426;DHT22;5769;47.998;7.788;2022-09-09T02:11:47;20.90;70.00
11426;DHT22;5769;47.998;7.788;2022-09-09T02:14:23;20.90;70.20
11426;DHT22;5769;47.998;7.788;2022-09-09T02:16:56;20.90;70.30
11426;DHT22;5769;47.998;7.788;2022-09-09T02:19:27;20.90;70.40
11426;DHT22;5769;47.998;7.788;2022-09-09T02:21:57;20.90;70.40
11426;DHT22;5769;47.998;7.788;2022-09-09T02:24:30;20.90;70.50
11426;DHT22;5769;47.998;7.788;2022-09-09T02:27:00;20.90;70.50
11426;DHT22;5769;47.998;7.788;2022-09-09T02:29:34;20.90;70.50
11426;DHT22;5769;47.998;7.788;2022-09-09T02:32:04;20.90;70.50
11426;DHT22;5769;47.998;7.788;2022-09-09T02:34:36;20.90;70.70
11426;DHT22;5769;47.998;7.788;2022-09-09T02:37:08;20.90;70.70
11426;DHT22;5769;47.998;7.788;2022-09-09T02:39:36;20.90;70.80
11426;DHT22;5769;47.998;7.788;2022-09-09T02:42:04;20.90;71.00
11426;DHT22;5769;47.998;7.788;2022-09-09T02:44:35;20.90;71.00
11426;DHT22;5769;47.998;7.788;2022-09-09T02:47:15;20.90;71.00
11426;DHT22;5769;47.998;7.788;2022-09-09T02:49:48;20.90;71.00
11426;DHT22;5769;47.998;7.788;2022-09-09T02:52:21;20.90;71.20
11426;DHT22;5769;47.998;7.788;2022-09-09T02:54:57;20.90;71.10
11426;DHT22;5769;47.998;7.788;2022-09-09T02:57:28;20.90;71.20
11426;DHT22;5769;47.998;7.788;2022-09-09T02:59:59;20.90;71.30
11426;DHT22;5769;47.998;7.788;2022-09-09T03:02:27;20.90;71.40
11426;DHT22;5769;47.998;7.788;2022-09-09T03:04:54;20.90;71.30
11426;DHT22;5769;47.998;7.788;2022-09-09T03:07:28;20.90;71.40
11426;DHT22;5769;47.998;7.788;2022-09-09T03:09:55;20.90;71.40
11426;DHT22;5769;47.998;7.788;2022-09-09T03:12:25;20.90;71.40
11426;DHT22;5769;47.998;7.788;2022-09-09T03:14:55;20.90;71.40
11426;DHT22;5769;47.998;7.788;2022-09-09T03:17:24;20.90;71.30
11426;DHT22;5769;47.998;7.788;2022-09-09T03:20:07;20.80;72.10
11426;DHT22;5769;47.998;7.788;2022-09-09T03:22:35;20.90;71.50
11426;DHT22;5769;47.998;7.788;2022-09-09T03:25:02;20.90;71.50
11426;DHT22;5769;47.998;7.788;2022-09-09T03:27:29;20.80;71.60
11426;DHT22;5769;47.998;7.788;2022-09-09T03:29:56;20.90;71.70
11426;DHT22;5769;47.998;7.788;2022-09-09T03:32:25;20.90;71.70
11426;DHT22;5769;47.998;7.788;2022-09-09T03:34:52;20.90;71.90
11426;DHT22;5769;47.998;7.788;2022-09-09T03:37:20;20.90;72.00
11426;DHT22;5769;47.998;7.788;2022-09-09T03:39:57;20.90;72.00
11426;DHT22;5769;47.998;7.788;2022-09-09T03:42:27;20.90;71.90
11426;DHT22;5769;47.998;7.788;2022-09-09T03:44:54;20.90;71.80
11426;DHT22;5769;47.998;7.788;2022-09-09T03:47:30;20.90;71.70
11426;DHT22;5769;47.998;7.788;2022-09-09T03:49:57;20.90;71.70
11426;DHT22;5769;47.998;7.788;2022-09-09T03:52:27;20.90;71.60
11426;DHT22;5769;47.998;7.788;2022-09-09T03:54:56;20.90;71.60
11426;DHT22;5769;47.998;7.788;2022-09-09T03:57:23;20.90;71.70
11426;DHT22;5769;47.998;7.788;2022-09-09T03:59:51;20.80;71.60
11426;DHT22;5769;47.998;7.788;2022-09-09T04:02:20;20.80;71.60
11426;DHT22;5769;47.998;7.788;2022-09-09T04:04:50;20.80;71.70
11426;DHT22;5769;47.998;7.788;2022-09-09T04:07:22;20.80;71.60
11426;DHT22;5769;47.998;7.788;2022-09-09T04:09:49;20.80;71.50
11426;DHT22;5769;47.998;7.788;2022-09-09T04:12:16;20.90;71.50
11426;DHT22;5769;47.998;7.788;2022-09-09T04:14:44;20.80;71.40
11426;DHT22;5769;47.998;7.788;2022-09-09T04:17:11;20.90;71.40
11426;DHT22;5769;47.998;7.788;2022-09-09T04:19:42;20.80;71.40
11426;DHT22;5769;47.998;7.788;2022-09-09T04:22:11;20.80;71.20
11426;DHT22;5769;47.998;7.788;2022-09-09T04:24:39;20.90;71.30
11426;DHT22;5769;47.998;7.788;2022-09-09T04:27:10;20.90;71.20
11426;DHT22;5769;47.998;7.788;2022-09-09T04:29:37;20.90;71.30
11426;DHT22;5769;47.998;7.788;2022-09-09T04:32:07;20.80;71.30
11426;DHT22;5769;47.998;7.788;2022-09-09T04:34:34;20.90;71.30
11426;DHT22;5769;47.998;7.788;2022-09-09T04:37:01;20.80;71.30
11426;DHT22;5769;47.998;7.788;2022-09-09T04:39:30;20.90;71.20
11426;DHT22;5769;47.998;7.788;2022-09-09T04:41:57;20.90;71.20
11426;DHT22;5769;47.998;7.788;2022-09-09T04:44:26;20.90;71.20
11426;DHT22;5769;47.998;7.788;2022-09-09T04:46:53;20.80;71.20
11426;DHT22;5769;47.998;7.788;2022-09-09T04:49:23;20.90;71.20
11426;DHT22;5769;47.998;7.788;2022-09-09T04:51:54;20.90;71.30
11426;DHT22;5769;47.998;7.788;2022-09-09T04:54:26;20.90;71.30
11426;DHT22;5769;47.998;7.788;2022-09-09T04:57:07;20.90;71.40
11426;DHT22;5769;47.998;7.788;2022-09-09T04:59:39;20.90;71.40
11426;DHT22;5769;47.998;7.788;2022-09-09T05:02:09;20.90;71.60
11426;DHT22;5769;47.998;7.788;2022-09-09T05:04:37;20.90;71.70
11426;DHT22;5769;47.998;7.788;2022-09-09T05:07:04;20.90;71.70
11426;DHT22;5769;47.998;7.788;2022-09-09T05:09:34;20.90;71.70
11426;DHT22;5769;47.998;7.788;2022-09-09T05:12:05;21.00;71.80
11426;DHT22;5769;47.998;7.788;2022-09-09T05:14:32;20.90;71.70
11426;DHT22;5769;47.998;7.788;2022-09-09T05:16:59;20.90;71.50
11426;DHT22;5769;47.998;7.788;2022-09-09T05:19:26;21.00;71.30
11426;DHT22;5769;47.998;7.788;2022-09-09T05:22:03;20.90;71.40
11426;DHT22;5769;47.998;7.788;2022-09-09T05:24:30;21.00;71.50
11426;DHT22;5769;47.998;7.788;2022-09-09T05:26:58;20.90;71.40
11426;DHT22;5769;47.998;7.788;2022-09-09T05:29:29;20.90;71.40
11426;DHT22;5769;47.998;7.788;2022-09-09T05:31:58;20.90;71.40
11426;DHT22;5769;47.998;7.788;2022-09-09T05:34:25;20.90;71.40
11426;DHT22;5769;47.998;7.788;2022-09-09T05:36:52;20.90;71.40
11426;DHT22;5769;47.998;7.788;2022-09-09T05:39:20;20.90;71.40
11426;DHT22;5769;47.998;7.788;2022-09-09T05:41:46;20.90;71.50
11426;DHT22;5769;47.998;7.788;2022-09-09T05:44:13;20.90;71.50
11426;DHT22;5769;47.998;7.788;2022-09-09T05:46:42;20.90;71.40
11426;DHT22;5769;47.998;7.788;2022-09-09T05:49:10;20.90;71.40
11426;DHT22;5769;47.998;7.788;2022-09-09T05:51:44;20.90;71.40
11426;DHT22;5769;47.998;7.788;2022-09-09T05:54:12;20.90;71.40
11426;DHT22;5769;47.998;7.788;2022-09-09T05:56:45;20.90;71.40
11426;DHT22;5769;47.998;7.788;2022-09-09T05:59:15;20.90;71.40
11426;DHT22;5769;47.998;7.788;2022-09-09T06:01:45;20.90;71.40
11426;DHT22;5769;47.998;7.788;2022-09-09T06:04:14;20.90;71.40
11426;DHT22;5769;47.998;7.788;2022-09-09T06:06:47;20.90;71.40
11426;DHT22;5769;47.998;7.788;2022-09-09T06:09:15;20.90;71.40
11426;DHT22;5769;47.998;7.788;2022-09-09T06:11:43;20.90;71.40
11426;DHT22;5769;47.998;7.788;2022-09-09T06:14:11;20.90;71.50
11426;DHT22;5769;47.998;7.788;2022-09-09T06:16:38;20.90;71.40
11426;DHT22;5769;47.998;7.788;2022-09-09T06:19:10;20.90;71.40
11426;DHT22;5769;47.998;7.788;2022-09-09T06:21:40;20.90;71.50
11426;DHT22;5769;47.998;7.788;2022-09-09T06:24:12;20.90;71.50
11426;DHT22;5769;47.998;7.788;2022-09-09T06:26:43;20.90;71.50
11426;DHT22;5769;47.998;7.788;2022-09-09T06:29:11;20.90;71.60
11426;DHT22;5769;47.998;7.788;2022-09-09T06:31:38;20.90;71.70
11426;DHT22;5769;47.998;7.788;2022-09-09T06:34:08;20.90;71.70
11426;DHT22;5769;47.998;7.788;2022-09-09T06:36:37;20.90;71.80
11426;DHT22;5769;47.998;7.788;2022-09-09T06:39:11;20.90;71.80
11426;DHT22;5769;47.998;7.788;2022-09-09T06:41:44;21.00;71.90
11426;DHT22;5769;47.998;7.788;2022-09-09T06:44:18;20.90;71.80
11426;DHT22;5769;47.998;7.788;2022-09-09T06:46:53;20.90;71.90
11426;DHT22;5769;47.998;7.788;2022-09-09T06:49:23;21.00;72.00
11426;DHT22;5769;47.998;7.788;2022-09-09T06:51:52;21.00;72.00
11426;DHT22;5769;47.998;7.788;2022-09-09T06:54:19;20.90;71.90
11426;DHT22;5769;47.998;7.788;2022-09-09T06:56:47;21.00;71.90
11426;DHT22;5769;47.998;7.788;2022-09-09T06:59:18;21.00;72.00
11426;DHT22;5769;47.998;7.788;2022-09-09T07:01:44;20.90;71.90
11426;DHT22;5769;47.998;7.788;2022-09-09T07:04:13;20.90;71.90
11426;DHT22;5769;47.998;7.788;2022-09-09T07:06:43;20.90;72.00
11426;DHT22;5769;47.998;7.788;2022-09-09T07:09:17;20.90;71.90
11426;DHT22;5769;47.998;7.788;2022-09-09T07:11:47;21.00;72.00
11426;DHT22;5769;47.998;7.788;2022-09-09T07:14:16;20.90;72.10
11426;DHT22;5769;47.998;7.788;2022-09-09T07:16:44;21.00;72.20
11426;DHT22;5769;47.998;7.788;2022-09-09T07:19:13;20.90;72.20
11426;DHT22;5769;47.998;7.788;2022-09-09T07:21:42;20.90;72.10
11426;DHT22;5769;47.998;7.788;2022-09-09T07:24:12;21.00;72.20
11426;DHT22;5769;47.998;7.788;2022-09-09T07:26:39;20.90;72.20
11426;DHT22;5769;47.998;7.788;2022-09-09T07:29:07;21.00;72.40
11426;DHT22;5769;47.998;7.788;2022-09-09T07:31:39;21.00;72.20
11426;DHT22;5769;47.998;7.788;2022-09-09T07:34:08;20.90;72.20
11426;DHT22;5769;47.998;7.788;2022-09-09T07:36:38;21.00;72.20
11426;DHT22;5769;47.998;7.788;2022-09-09T07:39:14;21.00;72.10
11426;DHT22;5769;47.998;7.788;2022-09-09T07:41:45;21.00;72.40
11426;DHT22;5769;47.998;7.788;2022-09-09T07:44:14;20.90;72.40
11426;DHT22;5769;47.998;7.788;2022-09-09T07:46:42;21.00;72.50
11426;DHT22;5769;47.998;7.788;2022-09-09T07:49:28;20.90;72.40
11426;DHT22;5769;47.998;7.788;2022-09-09T07:51:57;21.00;72.30
11426;DHT22;5769;47.998;7.788;2022-09-09T07:54:26;21.00;72.30
11426;DHT22;5769;47.998;7.788;2022-09-09T07:56:53;21.00;72.10
11426;DHT22;5769;47.998;7.788;2022-09-09T07:59:21;21.00;72.20
11426;DHT22;5769;47.998;7.788;2022-09-09T08:01:51;21.00;72.30
11426;DHT22;5769;47.998;7.788;2022-09-09T08:04:21;21.00;72.20
11426;DHT22;5769;47.998;7.788;2022-09-09T08:06:49;21.00;72.30
11426;DHT22;5769;47.998;7.788;2022-09-09T08:09:18;21.00;72.40
11426;DHT22;5769;47.998;7.788;2022-09-09T08:11:47;21.00;72.40
11426;DHT22;5769;47.998;7.788;2022-09-09T08:14:17;21.00;72.40
11426;DHT22;5769;47.998;7.788;2022-09-09T08:16:46;21.00;72.60
11426;DHT22;5769;47.998;7.788;2022-09-09T08:19:15;20.90;72.60
11426;DHT22;5769;47.998;7.788;2022-09-09T08:21:47;21.00;72.70
11426;DHT22;5769;47.998;7.788;2022-09-09T08:24:14;21.00;72.70
11426;DHT22;5769;47.998;7.788;2022-09-09T08:26:52;21.00;72.60
11426;DHT22;5769;47.998;7.788;2022-09-09T08:29:22;21.00;72.30
11426;DHT22;5769;47.998;7.788;2022-09-09T08:31:58;21.00;72.50
11426;DHT22;5769;47.998;7.788;2022-09-09T08:34:26;21.00;72.70
11426;DHT22;5769;47.998;7.788;2022-09-09T08:36:54;21.00;72.60
11426;DHT22;5769;47.998;7.788;2022-09-09T08:39:21;21.00;72.60
11426;DHT22;5769;47.998;7.788;2022-09-09T08:42:12;21.00;72.70
11426;DHT22;5769;47.998;7.788;2022-09-09T08:44:59;21.00;72.60
11426;DHT22;5769;47.998;7.788;2022-09-09T08:47:37;21.00;72.70
11426;DHT22;5769;47.998;7.788;2022-09-09T08:50:13;21.00;72.50
11426;DHT22;5769;47.998;7.788;2022-09-09T08:52:49;21.00;72.80
11426;DHT22;5769;47.998;7.788;2022-09-09T08:55:24;21.00;72.90
11426;DHT22;5769;47.998;7.788;2022-09-09T08:57:57;21.00;72.80
11426;DHT22;5769;47.998;7.788;2022-09-09T09:00:37;21.00;72.90
11426;DHT22;5769;47.998;7.788;2022-09-09T09:03:14;21.00;72.90
11426;DHT22;5769;47.998;7.788;2022-09-09T09:05:51;21.00;72.90
11426;DHT22;5769;47.998;7.788;2022-09-09T09:08:26;21.00;72.90
11426;DHT22;5769;47.998;7.788;2022-09-09T09:11:01;21.00;72.80
11426;DHT22;5769;47.998;7.788;2022-09-09T09:13:35;21.00;72.90
11426;DHT22;5769;47.998;7.788;2022-09-09T09:16:13;21.00;72.80
11426;DHT22;5769;47.998;7.788;2022-09-09T09:18:41;21.00;72.60
11426;DHT22;5769;47.998;7.788;2022-09-09T09:21:12;21.00;72.60
11426;DHT22;5769;47.998;7.788;2022-09-09T09:23:46;21.00;72.60
11426;DHT22;5769;47.998;7.788;2022-09-09T09:26:14;21.00;72.40
11426;DHT22;5769;47.998;7.788;2022-09-09T09:28:43;21.00;72.00
11426;DHT22;5769;47.998;7.788;2022-09-09T09:31:13;21.00;72.70
11426;DHT22;5769;47.998;7.788;2022-09-09T09:33:47;21.00;71.90
11426;DHT22;5769;47.998;7.788;2022-09-09T09:36:15;21.00;72.60
11426;DHT22;5769;47.998;7.788;2022-09-09T09:38:52;21.00;70.90
11426;DHT22;5769;47.998;7.788;2022-09-09T09:41:42;21.00;71.10
11426;DHT22;5769;47.998;7.788;2022-09-09T09:44:23;21.00;71.50
11426;DHT22;5769;47.998;7.788;2022-09-09T09:46:50;21.00;71.80
11426;DHT22;5769;47.998;7.788;2022-09-09T09:49:20;21.00;71.80
11426;DHT22;5769;47.998;7.788;2022-09-09T09:51:50;21.00;71.90
11426;DHT22;5769;47.998;7.788;2022-09-09T09:54:22;21.00;71.70
11426;DHT22;5769;47.998;7.788;2022-09-09T09:56:51;21.10;71.80
11426;DHT22;5769;47.998;7.788;2022-09-09T09:59:33;21.00;71.60
11426;DHT22;5769;47.998;7.788;2022-09-09T10:02:17;21.00;71.40
11426;DHT22;5769;47.998;7.788;2022-09-09T10:04:46;21.00;71.30
11426;DHT22;5769;47.998;7.788;2022-09-09T10:07:17;21.00;71.30
11426;DHT22;5769;47.998;7.788;2022-09-09T10:09:45;21.00;71.10
11426;DHT22;5769;47.998;7.788;2022-09-09T10:12:22;21.10;71.00
11426;DHT22;5769;47.998;7.788;2022-09-09T10:14:57;21.00;70.70
11426;DHT22;5769;47.998;7.788;2022-09-09T10:17:38;21.00;70.10
11426;DHT22;5769;47.998;7.788;2022-09-09T10:20:15;21.00;69.00
11426;DHT22;5769;47.998;7.788;2022-09-09T10:22:46;21.00;70.10
11426;DHT22;5769;47.998;7.788;2022-09-09T10:25:35;21.00;69.10
11426;DHT22;5769;47.998;7.788;2022-09-09T10:28:28;21.10;69.00
11426;DHT22;5769;47.998;7.788;2022-09-09T10:31:07;21.10;68.70
11426;DHT22;5769;47.998;7.788;2022-09-09T10:33:47;21.00;69.40
11426;DHT22;5769;47.998;7.788;2022-09-09T10:36:19;21.00;70.10
11426;DHT22;5769;47.998;7.788;2022-09-09T10:38:49;21.10;70.50
11426;DHT22;5769;47.998;7.788;2022-09-09T10:41:19;21.00;70.80
11426;DHT22;5769;47.998;7.788;2022-09-09T10:44:10;21.00;70.60
11426;DHT22;5769;47.998;7.788;2022-09-09T10:46:51;21.00;70.60
11426;DHT22;5769;47.998;7.788;2022-09-09T10:49:27;21.00;69.00
11426;DHT22;5769;47.998;7.788;2022-09-09T10:52:01;21.00;69.90
11426;DHT22;5769;47.998;7.788;2022-09-09T10:54:45;21.00;69.40
11426;DHT22;5769;47.998;7.788;2022-09-09T10:57:17;21.10;69.50
11426;DHT22;5769;47.998;7.788;2022-09-09T10:59:46;21.00;68.50
11426;DHT22;5769;47.998;7.788;2022-09-09T11:02:24;21.00;69.20
11426;DHT22;5769;47.998;7.788;2022-09-09T11:04:57;21.00;67.70
11426;DHT22;5769;47.998;7.788;2022-09-09T11:07:37;21.00;68.30
11426;DHT22;5769;47.998;7.788;2022-09-09T11:10:07;21.00;68.50
11426;DHT22;5769;47.998;7.788;2022-09-09T11:12:39;21.00;67.80
11426;DHT22;5769;47.998;7.788;2022-09-09T11:15:13;21.00;67.60
11426;DHT22;5769;47.998;7.788;2022-09-09T11:17:44;21.10;67.60
11426;DHT22;5769;47.998;7.788;2022-09-09T11:20:12;21.00;67.70
11426;DHT22;5769;47.998;7.788;2022-09-09T11:22:44;21.00;68.90
11426;DHT22;5769;47.998;7.788;2022-09-09T11:25:16;21.10;68.70
11426;DHT22;5769;47.998;7.788;2022-09-09T11:27:55;21.00;69.00
11426;DHT22;5769;47.998;7.788;2022-09-09T11:30:34;21.00;69.60
11426;DHT22;5769;47.998;7.788;2022-09-09T11:36:12;21.00;68.40
11426;DHT22;5769;47.998;7.788;2022-09-09T11:38:45;21.00;69.40
11426;DHT22;5769;47.998;7.788;2022-09-09T11:41:13;21.00;68.60
11426;DHT22;5769;47.998;7.788;2022-09-09T11:43:42;21.10;68.30
11426;DHT22;5769;47.998;7.788;2022-09-09T11:46:10;21.10;66.60
11426;DHT22;5769;47.998;7.788;2022-09-09T11:48:42;21.10;67.10
11426;DHT22;5769;47.998;7.788;2022-09-09T11:51:11;21.10;68.10
11426;DHT22;5769;47.998;7.788;2022-09-09T11:53:50;21.10;67.90
11426;DHT22;5769;47.998;7.788;2022-09-09T11:56:24;21.10;67.70
11426;DHT22;5769;47.998;7.788;2022-09-09T11:58:58;21.10;67.60
11426;DHT22;5769;47.998;7.788;2022-09-09T12:01:45;21.10;67.60
11426;DHT22;5769;47.998;7.788;2022-09-09T12:06:58;21.10;67.20
11426;DHT22;5769;47.998;7.788;2022-09-09T12:09:32;21.10;66.80
11426;DHT22;5769;47.998;7.788;2022-09-09T12:15:02;21.10;69.00
11426;DHT22;5769;47.998;7.788;2022-09-09T12:17:41;21.10;68.70
11426;DHT22;5769;47.998;7.788;2022-09-09T12:20:13;21.10;67.90
11426;DHT22;5769;47.998;7.788;2022-09-09T12:22:50;21.10;68.10
11426;DHT22;5769;47.998;7.788;2022-09-09T12:25:22;21.10;67.90
11426;DHT22;5769;47.998;7.788;2022-09-09T12:27:54;21.10;66.40
11426;DHT22;5769;47.998;7.788;2022-09-09T12:30:24;21.10;65.70
11426;DHT22;5769;47.998;7.788;2022-09-09T12:32:59;21.10;64.90
11426;DHT22;5769;47.998;7.788;2022-09-09T12:35:27;21.10;64.80
11426;DHT22;5769;47.998;7.788;2022-09-09T12:37:58;21.10;64.70
11426;DHT22;5769;47.998;7.788;2022-09-09T12:40:26;21.10;64.20
11426;DHT22;5769;47.998;7.788;2022-09-09T12:42:54;21.10;65.50
11426;DHT22;5769;47.998;7.788;2022-09-09T12:45:23;21.10;64.90
11426;DHT22;5769;47.998;7.788;2022-09-09T12:47:54;21.10;63.70
11426;DHT22;5769;47.998;7.788;2022-09-09T12:50:23;21.10;64.70
11426;DHT22;5769;47.998;7.788;2022-09-09T12:52:56;21.10;64.70
11426;DHT22;5769;47.998;7.788;2022-09-09T12:55:27;21.10;64.40
11426;DHT22;5769;47.998;7.788;2022-09-09T12:57:55;21.10;64.50
11426;DHT22;5769;47.998;7.788;2022-09-09T13:00:32;21.10;64.00
11426;DHT22;5769;47.998;7.788;2022-09-09T13:03:01;21.10;64.70
11426;DHT22;5769;47.998;7.788;2022-09-09T13:05:35;21.10;65.10
11426;DHT22;5769;47.998;7.788;2022-09-09T13:08:10;21.10;65.20
11426;DHT22;5769;47.998;7.788;2022-09-09T13:10:40;21.10;67.40
11426;DHT22;5769;47.998;7.788;2022-09-09T13:13:13;21.10;66.40
11426;DHT22;5769;47.998;7.788;2022-09-09T13:15:50;21.10;66.70
11426;DHT22;5769;47.998;7.788;2022-09-09T13:18:20;21.10;66.70
11426;DHT22;5769;47.998;7.788;2022-09-09T13:20:49;21.10;66.00
11426;DHT22;5769;47.998;7.788;2022-09-09T13:23:18;21.10;66.80
11426;DHT22;5769;47.998;7.788;2022-09-09T13:25:57;21.10;66.70
11426;DHT22;5769;47.998;7.788;2022-09-09T13:28:26;21.10;67.30
11426;DHT22;5769;47.998;7.788;2022-09-09T13:30:57;21.10;66.40
11426;DHT22;5769;47.998;7.788;2022-09-09T13:33:31;21.10;65.80
11426;DHT22;5769;47.998;7.788;2022-09-09T13:35:59;21.10;65.90
11426;DHT22;5769;47.998;7.788;2022-09-09T13:38:31;21.20;65.70
11426;DHT22;5769;47.998;7.788;2022-09-09T13:41:01;21.20;65.90
11426;DHT22;5769;47.998;7.788;2022-09-09T13:43:34;21.20;66.50
11426;DHT22;5769;47.998;7.788;2022-09-09T13:46:03;21.20;67.20
11426;DHT22;5769;47.998;7.788;2022-09-09T13:48:30;21.20;67.60
11426;DHT22;5769;47.998;7.788;2022-09-09T13:50:58;21.30;67.80
11426;DHT22;5769;47.998;7.788;2022-09-09T13:53:25;21.20;68.00
11426;DHT22;5769;47.998;7.788;2022-09-09T13:55:55;21.20;68.30
11426;DHT22;5769;47.998;7.788;2022-09-09T13:58:22;21.20;68.30
11426;DHT22;5769;47.998;7.788;2022-09-09T14:00:51;21.20;68.00
11426;DHT22;5769;47.998;7.788;2022-09-09T14:03:18;21.20;68.00
11426;DHT22;5769;47.998;7.788;2022-09-09T14:05:45;21.20;68.00
11426;DHT22;5769;47.998;7.788;2022-09-09T14:08:15;21.20;68.20
11426;DHT22;5769;47.998;7.788;2022-09-09T14:10:42;21.20;68.50
11426;DHT22;5769;47.998;7.788;2022-09-09T14:13:10;21.20;68.60
11426;DHT22;5769;47.998;7.788;2022-09-09T14:15:37;21.20;68.40
11426;DHT22;5769;47.998;7.788;2022-09-09T14:18:05;21.20;68.40
11426;DHT22;5769;47.998;7.788;2022-09-09T14:20:31;21.20;68.30
11426;DHT22;5769;47.998;7.788;2022-09-09T14:22:58;21.20;68.10
11426;DHT22;5769;47.998;7.788;2022-09-09T14:25:25;21.20;67.90
11426;DHT22;5769;47.998;7.788;2022-09-09T14:27:52;21.20;67.80
11426;DHT22;5769;47.998;7.788;2022-09-09T14:30:21;21.20;67.90
11426;DHT22;5769;47.998;7.788;2022-09-09T14:32:48;21.20;67.80
11426;DHT22;5769;47.998;7.788;2022-09-09T14:35:15;21.20;67.80
11426;DHT22;5769;47.998;7.788;2022-09-09T14:37:43;21.20;67.70
11426;DHT22;5769;47.998;7.788;2022-09-09T14:40:10;21.20;67.70
11426;DHT22;5769;47.998;7.788;2022-09-09T14:42:38;21.20;67.60
11426;DHT22;5769;47.998;7.788;2022-09-09T14:45:06;21.20;67.70
11426;DHT22;5769;47.998;7.788;2022-09-09T14:47:34;21.20;67.60
11426;DHT22;5769;47.998;7.788;2022-09-09T14:50:05;21.20;67.70
11426;DHT22;5769;47.998;7.788;2022-09-09T14:52:33;21.30;67.80
11426;DHT22;5769;47.998;7.788;2022-09-09T14:55:00;21.20;67.70
11426;DHT22;5769;47.998;7.788;2022-09-09T14:57:27;21.20;67.90
11426;DHT22;5769;47.998;7.788;2022-09-09T14:59:53;21.20;67.90
11426;DHT22;5769;47.998;7.788;2022-09-09T15:02:20;21.20;68.00
11426;DHT22;5769;47.998;7.788;2022-09-09T15:04:56;21.20;68.10
11426;DHT22;5769;47.998;7.788;2022-09-09T15:07:24;21.20;68.10
11426;DHT22;5769;47.998;7.788;2022-09-09T15:09:58;21.20;68.20
11426;DHT22;5769;47.998;7.788;2022-09-09T15:12:25;21.20;68.30
11426;DHT22;5769;47.998;7.788;2022-09-09T15:14:56;21.20;68.30
11426;DHT22;5769;47.998;7.788;2022-09-09T15:17:25;21.20;67.90
11426;DHT22;5769;47.998;7.788;2022-09-09T15:19:56;21.20;67.90
11426;DHT22;5769;47.998;7.788;2022-09-09T15:22:23;21.20;67.90
11426;DHT22;5769;47.998;7.788;2022-09-09T15:24:50;21.20;67.80
11426;DHT22;5769;47.998;7.788;2022-09-09T15:27:17;21.20;67.70
11426;DHT22;5769;47.998;7.788;2022-09-09T15:29:44;21.20;68.00
11426;DHT22;5769;47.998;7.788;2022-09-09T15:32:12;21.20;67.30
11426;DHT22;5769;47.998;7.788;2022-09-09T15:34:40;21.20;67.40
11426;DHT22;5769;47.998;7.788;2022-09-09T15:37:27;21.20;67.20
11426;DHT22;5769;47.998;7.788;2022-09-09T15:40:04;21.20;67.40
11426;DHT22;5769;47.998;7.788;2022-09-09T15:42:38;21.20;67.30
11426;DHT22;5769;47.998;7.788;2022-09-09T15:45:10;21.20;67.20
11426;DHT22;5769;47.998;7.788;2022-09-09T15:47:41;21.20;67.20
11426;DHT22;5769;47.998;7.788;2022-09-09T15:50:17;21.20;67.10
11426;DHT22;5769;47.998;7.788;2022-09-09T15:52:51;21.20;67.00
11426;DHT22;5769;47.998;7.788;2022-09-09T15:55:35;21.20;66.70
11426;DHT22;5769;47.998;7.788;2022-09-09T15:58:11;21.20;66.60
11426;DHT22;5769;47.998;7.788;2022-09-09T16:00:45;21.20;67.30
11426;DHT22;5769;47.998;7.788;2022-09-09T16:03:12;21.20;66.80
11426;DHT22;5769;47.998;7.788;2022-09-09T16:05:39;21.20;67.00
11426;DHT22;5769;47.998;7.788;2022-09-09T16:08:08;21.20;67.00
11426;DHT22;5769;47.998;7.788;2022-09-09T16:10:34;21.20;67.40
11426;DHT22;5769;47.998;7.788;2022-09-09T16:13:01;21.20;67.30
11426;DHT22;5769;47.998;7.788;2022-09-09T16:15:28;21.10;67.10
11426;DHT22;5769;47.998;7.788;2022-09-09T16:18:02;21.10;67.80
11426;DHT22;5769;47.998;7.788;2022-09-09T16:20:33;21.10;66.50
11426;DHT22;5769;47.998;7.788;2022-09-09T16:23:08;21.10;66.80
11426;DHT22;5769;47.998;7.788;2022-09-09T16:25:36;21.10;68.20